Time;durP1;ratioP1;P1;durP2;ratioP2;P2;SDS_P1;SDS_P2;PMS_P1;PMS_P2;Temp;Humidity;BMP_temperature;BMP_pressure;BME280_temperature;BME280_humidity;BME280_pressure;Samples;Min_cycle;Max_cycle;Signal;HPM_P1;HPM_P2
2024/01/20 00:01:12;;;;;;;9.93;8.80;;;;;;;-2.81;nan;100605.72;4982739;28;20482;-78
2024/01/20 00:03:38;;;;;;;16.30;9.57;;;;;;;-2.80;nan;100603.16;4983028;28;20485;-79
2024/01/20 00:06:03;;;;;;;12.47;9.37;;;;;;;-2.80;nan;100605.75;4982788;28;21127;-79
2024/01/20 00:08:29;;;;;;;13.00;8.10;;;;;;;-2.79;nan;100615.16;4982668;28;20196;-79
2024/01/20 00:10:54;;;;;;;18.37;10.20;;;;;;;-2.74;nan;100625.50;4982275;28;20227;-79
2024/01/20 00:13:19;;;;;;;16.83;8.07;;;;;;;-2.76;nan;100628.03;4983175;28;20285;-79
2024/01/20 00:15:45;;;;;;;14.17;8.87;;;;;;;-2.77;nan;100633.19;4983484;28;20208;-78
2024/01/20 00:18:10;;;;;;;14.73;10.40;;;;;;;-2.77;nan;100635.75;4981858;28;20200;-78
2024/01/20 00:20:36;;;;;;;18.83;10.80;;;;;;;-2.77;nan;100636.63;4984474;28;21223;-79
2024/01/20 00:23:01;;;;;;;17.60;12.97;;;;;;;-2.77;nan;100630.63;4984642;28;20251;-79
2024/01/20 00:25:26;;;;;;;11.13;9.40;;;;;;;-2.81;nan;100634.00;4982754;28;21135;-79
2024/01/20 00:27:52;;;;;;;13.87;9.57;;;;;;;-2.90;nan;100624.50;4981833;28;20955;-78
2024/01/20 00:30:17;;;;;;;12.57;8.63;;;;;;;-2.96;nan;100627.91;4994347;23;20257;-81
2024/01/20 00:32:43;;;;;;;11.77;8.30;;;;;;;-2.98;nan;100621.03;4973662;28;20264;-81
2024/01/20 00:35:08;;;;;;;11.77;8.90;;;;;;;-2.97;nan;100627.88;4985096;28;20634;-79
2024/01/20 00:37:37;;;;;;;9.57;6.90;;;;;;;-2.94;nan;100627.94;4995854;28;20509;-80
2024/01/20 00:40:04;;;;;;;12.15;8.23;;;;;;;-2.95;nan;100636.47;4996556;28;20203;-78
2024/01/20 00:42:30;;;;;;;19.75;8.85;;;;;;;-2.96;nan;100643.31;4983004;28;20211;-78
2024/01/20 00:44:56;;;;;;;12.15;8.52;;;;;;;-2.97;nan;100646.75;4981630;28;20235;-77
2024/01/20 00:47:21;;;;;;;13.17;7.80;;;;;;;-2.99;nan;100645.88;4982114;28;20294;-79
2024/01/20 00:49:47;;;;;;;11.83;8.60;;;;;;;-3.03;nan;100648.41;4982070;28;20704;-77
2024/01/20 00:52:14;;;;;;;9.98;8.13;;;;;;;-3.09;nan;100641.50;4984067;28;20199;-80
2024/01/20 00:54:39;;;;;;;17.33;8.63;;;;;;;-3.17;nan;100631.16;4983941;28;20645;-80
2024/01/20 00:57:05;;;;;;;10.63;9.37;;;;;;;-3.25;nan;100634.50;4989905;28;20214;-80
2024/01/20 00:59:30;;;;;;;10.57;8.37;;;;;;;-3.29;nan;100636.19;4983630;28;20215;-81
2024/01/20 01:01:56;;;;;;;11.47;8.80;;;;;;;-3.31;nan;100634.47;4981719;28;20225;-79
2024/01/20 01:04:22;;;;;;;20.20;9.00;;;;;;;-3.33;nan;100639.56;4982543;28;20199;-77
2024/01/20 01:06:48;;;;;;;8.83;7.40;;;;;;;-3.34;nan;100643.84;4979873;28;20217;-79
2024/01/20 01:09:14;;;;;;;13.75;8.85;;;;;;;-3.37;nan;100642.97;4981279;28;20462;-78
2024/01/20 01:11:39;;;;;;;17.00;9.33;;;;;;;-3.44;nan;100636.91;4982547;28;20211;-77
2024/01/20 01:14:05;;;;;;;9.53;7.77;;;;;;;-3.46;nan;100640.28;4980922;28;20198;-80
2024/01/20 01:16:30;;;;;;;11.33;7.20;;;;;;;-3.46;nan;100640.28;4980847;28;20644;-78
2024/01/20 01:18:56;;;;;;;12.67;9.50;;;;;;;-3.44;nan;100643.75;4981006;28;20214;-80
2024/01/20 01:21:22;;;;;;;11.05;7.30;;;;;;;-3.39;nan;100655.78;4980050;28;20261;-79
2024/01/20 01:23:47;;;;;;;9.67;7.43;;;;;;;-3.34;nan;100664.41;4981290;28;20608;-81
2024/01/20 01:26:13;;;;;;;14.93;8.77;;;;;;;-3.29;nan;100655.88;4982922;28;20479;-79
2024/01/20 01:28:38;;;;;;;18.03;8.13;;;;;;;-3.26;nan;100661.06;4979514;28;20693;-79
2024/01/20 01:31:03;;;;;;;12.87;7.77;;;;;;;-3.27;nan;100662.75;4988982;28;20277;-80
2024/01/20 01:33:29;;;;;;;12.80;7.60;;;;;;;-3.29;nan;100667.03;4989505;28;20734;-78
2024/01/20 01:35:54;;;;;;;21.60;10.03;;;;;;;-3.32;nan;100669.56;4981013;28;20211;-77
2024/01/20 01:38:19;;;;;;;13.17;8.30;;;;;;;-3.30;nan;100677.28;4981186;28;20274;-78
2024/01/20 01:40:45;;;;;;;10.80;5.80;;;;;;;-3.33;nan;100676.38;4979973;28;20211;-78
2024/01/20 01:43:10;;;;;;;10.07;6.80;;;;;;;-3.40;nan;100681.47;4980373;28;20277;-78
2024/01/20 01:45:35;;;;;;;9.93;5.73;;;;;;;-3.42;nan;100678.88;4981289;28;20209;-79
2024/01/20 01:48:01;;;;;;;9.60;6.03;;;;;;;-3.44;nan;100684.84;4982377;28;20270;-77
2024/01/20 01:50:27;;;;;;;7.70;6.37;;;;;;;-3.46;nan;100681.38;4980910;28;20204;-79
2024/01/20 01:52:54;;;;;;;9.93;5.80;;;;;;;-3.48;nan;100690.78;4981045;28;20719;-78
2024/01/20 01:55:22;;;;;;;12.13;7.32;;;;;;;-3.53;nan;100692.47;4979369;28;20773;-78
2024/01/20 01:57:53;;;;;;;14.00;5.72;;;;;;;-3.52;nan;100683.91;4980079;28;20195;-80
2024/01/20 02:00:18;;;;;;;10.05;7.00;;;;;;;-3.51;nan;100685.63;4978876;28;20281;-78
2024/01/20 02:02:44;;;;;;;13.60;8.37;;;;;;;-3.49;nan;100695.06;4986714;28;20195;-78
2024/01/20 02:05:10;;;;;;;10.00;6.10;;;;;;;-3.44;nan;100697.69;4979361;28;20287;-81
2024/01/20 02:07:37;;;;;;;9.43;6.80;;;;;;;-3.40;nan;100700.31;4980287;28;20469;-80
2024/01/20 02:10:05;;;;;;;15.13;6.97;;;;;;;-3.36;nan;100702.06;4980050;28;20207;-79
2024/01/20 02:12:31;;;;;;;12.65;7.68;;;;;;;-3.30;nan;100695.25;4981358;28;20194;-78
2024/01/20 02:14:58;;;;;;;15.43;8.68;;;;;;;-3.30;nan;100687.56;4980124;28;20560;-78
2024/01/20 02:17:24;;;;;;;13.07;9.50;;;;;;;-3.35;nan;100679.78;4981908;28;20195;-81
2024/01/20 02:19:49;;;;;;;15.37;9.60;;;;;;;-3.39;nan;100678.06;4986373;28;20212;-80
2024/01/20 02:22:15;;;;;;;15.00;9.43;;;;;;;-3.40;nan;100673.78;4982445;28;20215;-79
2024/01/20 02:24:48;;;;;;;12.13;8.35;;;;;;;-3.45;nan;100678.84;4981487;28;20200;-78
2024/01/20 02:27:14;;;;;;;10.18;7.85;;;;;;;-3.49;nan;100676.22;4980413;28;20206;-79
2024/01/20 02:29:39;;;;;;;14.68;8.13;;;;;;;-3.52;nan;100674.47;4981233;28;20557;-78
2024/01/20 02:32:14;;;;;;;15.07;8.73;;;;;;;-3.53;nan;100685.63;4980858;28;20262;-81
2024/01/20 02:34:40;;;;;;;10.50;7.50;;;;;;;-3.52;nan;100687.31;4989141;28;20200;-81
2024/01/20 02:37:08;;;;;;;13.03;7.73;;;;;;;-3.63;nan;100683.78;4983630;28;20191;-78
2024/01/20 02:39:34;;;;;;;13.55;8.30;;;;;;;-3.72;nan;100681.13;4984950;28;20295;-82
2024/01/20 02:41:59;;;;;;;15.10;7.07;;;;;;;-3.84;nan;100697.22;4985177;28;20199;-81
2024/01/20 02:44:25;;;;;;;10.73;8.33;;;;;;;-3.92;nan;100698.81;4982755;28;20254;-78
2024/01/20 02:46:52;;;;;;;18.63;11.00;;;;;;;-3.94;nan;100701.38;4983345;28;20204;-80
2024/01/20 02:49:17;;;;;;;11.07;6.82;;;;;;;-3.92;nan;100694.56;4984642;28;20210;-78
2024/01/20 02:51:43;;;;;;;10.93;8.60;;;;;;;-3.87;nan;100705.75;4984348;28;20219;-78
2024/01/20 02:54:08;;;;;;;10.17;7.30;;;;;;;-3.83;nan;100704.94;4982973;28;20446;-78
2024/01/20 02:56:34;;;;;;;15.37;7.53;;;;;;;-3.81;nan;100704.94;4984117;28;20215;-80
2024/01/20 02:58:59;;;;;;;10.67;6.80;;;;;;;-3.84;nan;100697.22;4983423;28;20216;-78
2024/01/20 03:01:24;;;;;;;12.07;6.23;;;;;;;-3.88;nan;100701.47;4983771;28;20208;-82
2024/01/20 03:03:50;;;;;;;16.07;8.50;;;;;;;-3.87;nan;100705.75;4983296;28;20211;-79
2024/01/20 03:06:15;;;;;;;12.13;8.20;;;;;;;-3.84;nan;100703.22;4984048;28;20203;-80
2024/01/20 03:08:41;;;;;;;17.17;8.80;;;;;;;-3.78;nan;100711.00;4984962;28;20222;-78
2024/01/20 03:11:06;;;;;;;18.33;11.20;;;;;;;-3.71;nan;100698.25;4984633;28;20192;-78
2024/01/20 03:13:32;;;;;;;16.67;11.60;;;;;;;-3.63;nan;100705.19;4984708;28;20283;-80
2024/01/20 03:15:57;;;;;;;15.00;10.27;;;;;;;-3.56;nan;100701.00;4982730;28;20348;-78
2024/01/20 03:18:23;;;;;;;21.90;11.97;;;;;;;-3.56;nan;100695.84;4984737;28;20310;-80
2024/01/20 03:20:48;;;;;;;24.05;10.45;;;;;;;-3.59;nan;100699.25;4993334;28;20214;-82
2024/01/20 03:23:14;;;;;;;17.63;8.60;;;;;;;-3.61;nan;100705.22;4984382;28;20227;-79
2024/01/20 03:25:39;;;;;;;23.70;14.30;;;;;;;-3.62;nan;100701.78;4982815;28;20594;-79
2024/01/20 03:28:05;;;;;;;23.13;11.50;;;;;;;-3.66;nan;100699.16;4985221;28;20234;-78
2024/01/20 03:30:30;;;;;;;18.20;9.53;;;;;;;-3.66;nan;100691.44;4983190;28;20261;-79
2024/01/20 03:32:55;;;;;;;19.63;11.27;;;;;;;-3.72;nan;100697.38;4984569;28;20337;-77
2024/01/20 03:35:22;;;;;;;26.97;10.80;;;;;;;-3.76;nan;100708.44;4985327;28;20260;-79
2024/01/20 03:37:47;;;;;;;22.05;13.63;;;;;;;-3.79;nan;100711.84;4984033;28;20224;-81
2024/01/20 03:40:14;;;;;;;16.63;11.60;;;;;;;-3.76;nan;100720.41;4981057;28;20775;-78
2024/01/20 03:42:39;;;;;;;19.83;11.63;;;;;;;-3.75;nan;100732.41;4983812;28;20570;-80
2024/01/20 03:45:05;;;;;;;16.57;11.00;;;;;;;-3.76;nan;100718.72;4982643;28;20684;-79
2024/01/20 03:47:30;;;;;;;19.70;11.87;;;;;;;-3.74;nan;100726.44;4983587;28;20286;-78
2024/01/20 03:49:56;;;;;;;30.50;14.87;;;;;;;-3.71;nan;100731.63;4982589;28;20431;-79
2024/01/20 03:52:21;;;;;;;29.43;14.13;;;;;;;-3.69;nan;100733.34;4984279;28;20774;-81
2024/01/20 03:54:47;;;;;;;26.13;11.57;;;;;;;-3.68;nan;100724.81;4980261;28;20196;-80
2024/01/20 03:57:12;;;;;;;24.93;11.93;;;;;;;-3.65;nan;100732.53;4982409;28;20586;-81
2024/01/20 03:59:37;;;;;;;27.93;16.27;;;;;;;-3.62;nan;100729.16;4982966;28;20203;-78
2024/01/20 04:02:03;;;;;;;41.10;17.00;;;;;;;-3.61;nan;100726.59;4982422;28;20292;-79
2024/01/20 04:04:28;;;;;;;52.63;18.90;;;;;;;-3.69;nan;100727.38;4982677;28;20196;-80
2024/01/20 04:06:54;;;;;;;41.50;16.23;;;;;;;-3.73;nan;100726.44;4983496;28;20207;-80
2024/01/20 04:09:19;;;;;;;81.68;29.50;;;;;;;-3.72;nan;100730.75;4981270;28;20826;-81
2024/01/20 04:11:45;;;;;;;37.47;14.97;;;;;;;-3.71;nan;100734.19;4983577;28;20218;-80
2024/01/20 04:14:10;;;;;;;27.30;13.27;;;;;;;-3.67;nan;100733.34;4981327;28;20488;-78
2024/01/20 04:16:36;;;;;;;38.00;13.50;;;;;;;-3.67;nan;100741.06;4981366;28;20642;-81
2024/01/20 04:19:02;;;;;;;26.37;13.10;;;;;;;-3.68;nan;100736.78;4982556;28;20222;-81
2024/01/20 04:21:27;;;;;;;25.27;12.60;;;;;;;-3.69;nan;100733.34;4982003;28;20573;-81
2024/01/20 04:23:53;;;;;;;28.10;14.40;;;;;;;-3.69;nan;100723.09;4981625;28;20203;-78
2024/01/20 04:26:18;;;;;;;23.27;10.33;;;;;;;-3.72;nan;100727.34;4983014;28;21194;-79
2024/01/20 04:28:43;;;;;;;26.73;11.20;;;;;;;-3.76;nan;100726.41;4981857;28;20249;-80
2024/01/20 04:31:09;;;;;;;24.93;11.53;;;;;;;-3.77;nan;100734.97;4980635;28;20215;-80
2024/01/20 04:33:39;;;;;;;15.87;12.27;;;;;;;-3.77;nan;100740.09;4981689;28;20200;-83
2024/01/20 04:36:05;;;;;;;39.25;15.02;;;;;;;-3.74;nan;100752.97;4982024;28;20396;-82
2024/01/20 04:38:31;;;;;;;24.70;11.25;;;;;;;-3.71;nan;100762.41;4981830;28;20307;-82
2024/01/20 04:40:56;;;;;;;17.00;10.77;;;;;;;-3.71;nan;100755.56;4981366;28;20284;-81
2024/01/20 04:43:22;;;;;;;39.60;11.70;;;;;;;-3.71;nan;100765.00;4982133;28;20501;-78
2024/01/20 04:45:47;;;;;;;20.03;11.73;;;;;;;-3.90;nan;100764.75;4983085;28;20695;-80
2024/01/20 04:48:12;;;;;;;20.33;6.20;;;;;;;-3.92;nan;100760.44;4985061;28;20195;-79
2024/01/20 04:50:41;;;;;;;20.25;9.32;;;;;;;-3.93;nan;100764.69;4987015;28;20204;-79
2024/01/20 04:53:07;;;;;;;28.63;15.50;;;;;;;-3.94;nan;100754.41;4986002;28;20708;-82
2024/01/20 04:55:32;;;;;;;20.77;11.53;;;;;;;-3.96;nan;100768.94;4984597;28;20426;-80
2024/01/20 04:57:57;;;;;;;26.17;11.33;;;;;;;-3.98;nan;100779.16;4980261;28;20687;-83
2024/01/20 05:00:23;;;;;;;23.63;12.40;;;;;;;-4.00;nan;100775.72;4982573;28;20225;-82
2024/01/20 05:02:48;;;;;;;34.30;12.57;;;;;;;-3.99;nan;100779.16;4982086;28;21041;-80
2024/01/20 05:05:14;;;;;;;19.67;11.00;;;;;;;-3.97;nan;100783.44;4983622;28;20204;-80
2024/01/20 05:07:39;;;;;;;22.13;13.70;;;;;;;-3.90;nan;100781.84;4981567;28;20214;-78
2024/01/20 05:10:05;;;;;;;33.73;12.57;;;;;;;-3.88;nan;100780.19;4983969;28;20254;-79
2024/01/20 05:12:30;;;;;;;59.20;14.87;;;;;;;-3.87;nan;100780.19;4983926;28;20595;-81
2024/01/20 05:14:56;;;;;;;18.93;9.17;;;;;;;-3.90;nan;100782.72;4982533;28;20200;-81
2024/01/20 05:17:21;;;;;;;16.13;10.10;;;;;;;-3.87;nan;100782.75;4982404;28;20669;-80
2024/01/20 05:19:46;;;;;;;31.73;13.07;;;;;;;-3.83;nan;100792.22;4981531;28;20610;-79
2024/01/20 05:22:12;;;;;;;24.57;15.30;;;;;;;-3.83;nan;100788.81;4982867;28;20661;-80
2024/01/20 05:24:37;;;;;;;36.07;11.60;;;;;;;-3.91;nan;100788.69;4981360;28;20294;-78
2024/01/20 05:27:03;;;;;;;37.70;13.80;;;;;;;-3.91;nan;100796.41;4979532;28;20294;-81
2024/01/20 05:29:29;;;;;;;28.83;11.43;;;;;;;-3.89;nan;100801.53;4979914;28;20231;-79
2024/01/20 05:31:54;;;;;;;33.23;11.70;;;;;;;-3.90;nan;100803.25;4981641;28;20570;-79
2024/01/20 05:34:19;;;;;;;25.93;12.73;;;;;;;-3.92;nan;100794.66;4981311;28;20299;-79
2024/01/20 05:36:45;;;;;;;79.70;19.47;;;;;;;-3.98;nan;100801.41;4980351;28;20191;-79
2024/01/20 05:39:10;;;;;;;32.77;12.90;;;;;;;-4.00;nan;100803.94;4981049;28;20726;-80
2024/01/20 05:41:35;;;;;;;22.90;11.47;;;;;;;-4.02;nan;100795.38;4980917;28;20246;-79
2024/01/20 05:44:02;;;;;;;21.33;12.27;;;;;;;-4.02;nan;100800.50;4994792;28;20204;-81
2024/01/20 05:46:28;;;;;;;18.25;9.95;;;;;;;-3.97;nan;100805.69;4983531;28;20234;-78
2024/01/20 05:48:53;;;;;;;22.60;11.57;;;;;;;-3.92;nan;100810.03;4985057;28;20655;-78
2024/01/20 05:51:19;;;;;;;27.17;15.00;;;;;;;-3.86;nan;100807.59;4987075;28;20207;-78
2024/01/20 05:53:45;;;;;;;41.93;13.70;;;;;;;-3.91;nan;100809.22;4984510;28;20267;-78
2024/01/20 05:56:11;;;;;;;30.17;9.38;;;;;;;-3.94;nan;100809.19;4985822;28;20645;-78
2024/01/20 05:58:36;;;;;;;20.47;9.60;;;;;;;-4.05;nan;100811.59;4986500;28;20736;-78
2024/01/20 06:01:02;;;;;;;36.20;10.60;;;;;;;-4.06;nan;100804.72;4985525;28;20235;-78
2024/01/20 06:03:27;;;;;;;22.03;10.93;;;;;;;-4.04;nan;100808.19;4986077;28;20203;-78
2024/01/20 06:05:53;;;;;;;22.37;13.47;;;;;;;-4.01;nan;100807.34;4985363;28;20198;-78
2024/01/20 06:08:18;;;;;;;40.53;18.10;;;;;;;-3.96;nan;100805.72;4987428;28;20449;-78
2024/01/20 06:10:44;;;;;;;26.73;14.57;;;;;;;-3.93;nan;100803.19;4990023;28;20207;-78
2024/01/20 06:13:09;;;;;;;24.67;13.23;;;;;;;-3.89;nan;100804.97;4990123;28;20488;-78
2024/01/20 06:15:35;;;;;;;21.03;10.10;;;;;;;-3.86;nan;100802.47;4989329;28;20203;-78
2024/01/20 06:18:00;;;;;;;15.53;10.83;;;;;;;-3.85;nan;100803.31;4990916;28;20199;-78
2024/01/20 06:20:26;;;;;;;32.67;12.63;;;;;;;-3.87;nan;100800.72;4990791;28;20583;-78
2024/01/20 06:22:51;;;;;;;19.97;10.87;;;;;;;-3.89;nan;100801.53;4994480;28;20196;-78
2024/01/20 06:25:17;;;;;;;19.17;10.67;;;;;;;-3.90;nan;100800.66;4998780;28;20461;-78
2024/01/20 06:27:42;;;;;;;13.60;8.37;;;;;;;-3.91;nan;100795.53;5001253;28;20203;-79
2024/01/20 06:30:08;;;;;;;35.83;13.33;;;;;;;-3.91;nan;100803.22;5000348;28;20613;-78
2024/01/20 06:32:33;;;;;;;16.95;11.50;;;;;;;-3.92;nan;100797.22;5000972;22;20946;-82
2024/01/20 06:34:59;;;;;;;17.20;10.20;;;;;;;-3.94;nan;100808.28;4985239;28;20199;-83
2024/01/20 06:37:24;;;;;;;19.47;9.43;;;;;;;-3.96;nan;100810.84;5006555;28;20203;-83
2024/01/20 06:39:50;;;;;;;21.77;9.40;;;;;;;-4.02;nan;100806.50;5009419;28;20215;-83
2024/01/20 06:42:16;;;;;;;23.67;11.50;;;;;;;-4.04;nan;100809.88;4995782;28;20215;-83
2024/01/20 06:44:41;;;;;;;31.77;12.30;;;;;;;-4.07;nan;100813.25;4995676;28;20204;-82
2024/01/20 06:47:07;;;;;;;18.13;9.00;;;;;;;-4.08;nan;100818.34;4993736;28;20196;-83
2024/01/20 06:49:33;;;;;;;34.13;11.00;;;;;;;-4.10;nan;100813.22;4992079;28;20200;-83
2024/01/20 06:51:58;;;;;;;26.02;10.25;;;;;;;-4.12;nan;100809.75;4993028;28;20619;-82
2024/01/20 06:54:24;;;;;;;12.97;8.33;;;;;;;-4.11;nan;100810.63;4993926;28;20672;-82
2024/01/20 06:56:49;;;;;;;29.93;9.47;;;;;;;-4.12;nan;100804.63;4993640;28;20196;-83
2024/01/20 06:59:15;;;;;;;21.10;7.90;;;;;;;-4.11;nan;100805.50;4994064;28;20216;-83
2024/01/20 07:01:40;;;;;;;22.70;11.30;;;;;;;-4.12;nan;100811.47;4998195;28;20195;-82
2024/01/20 07:04:06;;;;;;;15.70;7.43;;;;;;;-4.14;nan;100821.69;4994404;28;20199;-82
2024/01/20 07:06:31;;;;;;;16.53;8.10;;;;;;;-4.16;nan;100827.63;4995739;28;20199;-82
2024/01/20 07:08:57;;;;;;;33.10;17.07;;;;;;;-4.23;nan;100837.81;4991007;28;20471;-81
2024/01/20 07:11:24;;;;;;;17.90;10.90;;;;;;;-4.27;nan;100836.03;4992915;28;20215;-83
2024/01/20 07:13:50;;;;;;;16.42;8.48;;;;;;;-4.31;nan;100844.53;4995248;28;20188;-82
2024/01/20 07:16:15;;;;;;;20.57;11.00;;;;;;;-4.30;nan;100845.38;4993697;28;20234;-82
2024/01/20 07:18:41;;;;;;;16.60;10.20;;;;;;;-4.26;nan;100834.34;4992696;28;20203;-82
2024/01/20 07:21:07;;;;;;;20.17;12.27;;;;;;;-4.24;nan;100841.22;4994245;28;20254;-83
2024/01/20 07:23:35;;;;;;;14.52;9.63;;;;;;;-4.20;nan;100844.69;4993824;28;20210;-83
2024/01/20 07:26:01;;;;;;;22.73;10.93;;;;;;;-4.16;nan;100848.16;4994497;28;20921;-83
2024/01/20 07:28:27;;;;;;;16.90;8.37;;;;;;;-4.14;nan;100856.75;4994188;28;20302;-83
2024/01/20 07:30:53;;;;;;;16.13;9.60;;;;;;;-4.11;nan;100865.34;4994762;28;20865;-83
2024/01/20 07:33:19;;;;;;;22.87;9.33;;;;;;;-4.06;nan;100855.19;4994596;28;20241;-82
2024/01/20 07:35:44;;;;;;;25.42;10.50;;;;;;;-4.05;nan;100862.03;4999632;28;20458;-82
2024/01/20 07:38:10;;;;;;;23.23;12.85;;;;;;;-4.02;nan;100873.22;4993217;28;20436;-82
2024/01/20 07:40:35;;;;;;;22.93;11.50;;;;;;;-3.98;nan;100871.56;4990680;28;20561;-82
2024/01/20 07:43:01;;;;;;;19.07;10.17;;;;;;;-3.97;nan;100875.84;4996296;28;20600;-82
2024/01/20 07:45:31;;;;;;;19.90;10.27;;;;;;;-3.96;nan;100877.59;4997242;28;20203;-83
2024/01/20 07:48:00;;;;;;;13.10;10.70;;;;;;;-3.94;nan;100882.72;4998744;28;20231;-82
2024/01/20 07:50:25;;;;;;;17.23;10.38;;;;;;;-3.92;nan;100902.44;4997742;28;20845;-82
2024/01/20 07:52:51;;;;;;;19.67;10.00;;;;;;;-3.92;nan;100897.31;4995825;28;20200;-80
2024/01/20 07:55:16;;;;;;;18.63;9.37;;;;;;;-3.89;nan;100904.19;4992111;28;20450;-81
2024/01/20 07:57:42;;;;;;;23.00;12.40;;;;;;;-3.87;nan;100905.94;4989668;28;20528;-80
2024/01/20 08:00:10;;;;;;;16.50;9.20;;;;;;;-3.84;nan;100913.69;4985993;28;20203;-81
2024/01/20 08:02:36;;;;;;;15.68;8.85;;;;;;;-3.78;nan;100918.06;4985131;28;20223;-82
2024/01/20 08:05:02;;;;;;;20.52;8.73;;;;;;;-3.73;nan;100916.44;4987180;28;20208;-83
2024/01/20 08:07:32;;;;;;;29.00;11.70;;;;;;;-3.68;nan;100921.66;5001831;28;20441;-82
2024/01/20 08:09:57;;;;;;;18.30;10.23;;;;;;;-3.65;nan;100929.41;4987794;28;20556;-82
2024/01/20 08:12:23;;;;;;;17.73;11.43;;;;;;;-3.61;nan;100932.03;4986183;28;20204;-82
2024/01/20 08:14:48;;;;;;;22.70;12.97;;;;;;;-3.56;nan;100937.25;4984587;28;20691;-82
2024/01/20 08:17:14;;;;;;;27.03;15.10;;;;;;;-3.51;nan;100937.31;4984835;28;20256;-82
2024/01/20 08:19:42;;;;;;;25.30;11.50;;;;;;;-3.46;nan;100946.81;4985197;28;20692;-81
2024/01/20 08:22:07;;;;;;;22.08;12.90;;;;;;;-3.41;nan;100949.44;4984862;28;20236;-82
2024/01/20 08:24:36;;;;;;;28.73;13.00;;;;;;;-3.40;nan;100957.19;4990120;28;20234;-82
2024/01/20 08:27:02;;;;;;;25.73;13.75;;;;;;;-3.38;nan;100952.91;4987175;28;20200;-82
2024/01/20 08:29:28;;;;;;;28.27;12.63;;;;;;;-3.35;nan;100953.00;4984798;28;20640;-82
2024/01/20 08:31:54;;;;;;;23.63;13.73;;;;;;;-3.29;nan;100956.47;4984140;28;20298;-82
2024/01/20 08:34:20;;;;;;;29.80;13.57;;;;;;;-3.26;nan;100948.81;4988761;28;20203;-82
2024/01/20 08:36:45;;;;;;;40.67;14.20;;;;;;;-3.23;nan;100948.88;4989969;28;20465;-82
2024/01/20 08:39:11;;;;;;;35.47;21.87;;;;;;;-3.23;nan;100947.16;4986741;28;20755;-82
2024/01/20 08:41:36;;;;;;;29.63;14.80;;;;;;;-3.22;nan;100953.16;4986935;28;20220;-81
2024/01/20 08:44:02;;;;;;;41.87;17.33;;;;;;;-3.19;nan;100953.19;4985264;28;20194;-82
2024/01/20 08:46:34;;;;;;;34.00;13.60;;;;;;;-3.14;nan;100964.41;4986814;28;20287;-81
2024/01/20 08:49:00;;;;;;;25.10;13.40;;;;;;;-3.21;nan;100972.88;4989019;28;20334;-81
2024/01/20 08:51:25;;;;;;;23.97;14.27;;;;;;;-3.22;nan;100986.56;4985748;28;20279;-81
2024/01/20 08:53:51;;;;;;;22.80;13.63;;;;;;;-3.26;nan;100979.66;4987890;28;20201;-82
2024/01/20 08:56:16;;;;;;;30.80;14.87;;;;;;;-3.36;nan;100988.91;4992029;28;20198;-81
2024/01/20 08:58:42;;;;;;;35.13;17.33;;;;;;;-3.54;nan;100992.06;4989215;28;20199;-81
2024/01/20 09:01:08;;;;;;;28.67;14.00;;;;;;;-3.63;nan;100989.34;4986304;28;20211;-82
2024/01/20 09:03:33;;;;;;;21.63;12.00;;;;;;;-3.66;nan;101004.72;4985094;28;20207;-83
2024/01/20 09:05:58;;;;;;;33.17;14.77;;;;;;;-3.66;nan;101007.28;4985023;28;20450;-81
2024/01/20 09:08:24;;;;;;;37.50;19.00;;;;;;;-3.62;nan;101014.19;4986151;28;20431;-82
2024/01/20 09:10:49;;;;;;;27.93;12.77;;;;;;;-3.56;nan;100998.91;4985664;28;20295;-82
2024/01/20 09:13:15;;;;;;;30.67;14.90;;;;;;;-3.55;nan;101000.63;4988111;28;20210;-82
2024/01/20 09:15:40;;;;;;;27.42;14.68;;;;;;;-3.67;nan;101003.84;4983762;28;20214;-82
2024/01/20 09:18:06;;;;;;;26.60;12.67;;;;;;;-3.66;nan;101010.72;4984989;28;20267;-82
2024/01/20 09:20:31;;;;;;;26.53;12.50;;;;;;;-3.75;nan;101009.66;4982076;28;20216;-82
2024/01/20 09:22:57;;;;;;;23.93;11.50;;;;;;;-3.71;nan;101003.78;4987682;28;20818;-81
2024/01/20 09:25:28;;;;;;;26.10;11.73;;;;;;;-3.71;nan;101011.47;4990009;28;20686;-82
2024/01/20 09:27:54;;;;;;;20.70;10.10;;;;;;;-3.63;nan;101002.19;4987212;28;20610;-82
2024/01/20 09:30:19;;;;;;;20.90;10.80;;;;;;;-3.51;nan;101009.22;4984772;28;20192;-82
2024/01/20 09:32:45;;;;;;;28.23;12.63;;;;;;;-3.39;nan;101009.44;4985118;28;20319;-82
2024/01/20 09:35:10;;;;;;;25.33;12.13;;;;;;;-3.26;nan;101011.34;4986383;28;20257;-81
2024/01/20 09:37:39;;;;;;;18.17;10.50;;;;;;;-3.12;nan;101012.41;4987376;28;20427;-82
2024/01/20 09:40:05;;;;;;;24.73;12.82;;;;;;;-3.08;nan;101004.75;4987317;28;20477;-82
2024/01/20 09:42:31;;;;;;;28.23;14.55;;;;;;;-3.13;nan;101002.13;4988179;28;20265;-82
2024/01/20 09:44:59;;;;;;;23.35;11.73;;;;;;;-3.14;nan;101002.94;4991803;28;20199;-82
2024/01/20 09:47:24;;;;;;;24.05;11.63;;;;;;;-3.14;nan;100996.09;4993447;28;20203;-82
2024/01/20 09:49:49;;;;;;;28.40;13.83;;;;;;;-3.18;nan;101001.19;4994485;28;20721;-82
2024/01/20 09:52:19;;;;;;;19.50;11.80;;;;;;;-3.10;nan;100991.03;4999739;28;20234;-82
2024/01/20 09:55:21;;;;;;;22.02;12.60;;;;;;;-3.03;nan;100993.69;4993595;28;20206;-81
2024/01/20 09:57:50;;;;;;;24.02;11.38;;;;;;;-3.04;nan;100997.09;4998777;28;20524;-82
2024/01/20 10:00:16;;;;;;;22.88;10.10;;;;;;;-3.01;nan;100986.84;4993364;28;20241;-82
2024/01/20 10:02:46;;;;;;;21.63;10.73;;;;;;;-2.95;nan;100986.94;4994126;28;20828;-82
2024/01/20 10:05:12;;;;;;;26.60;14.40;;;;;;;-2.84;nan;100988.78;4989951;28;20245;-82
2024/01/20 10:07:38;;;;;;;24.00;12.73;;;;;;;-2.80;nan;100985.44;4988078;28;20176;-83
2024/01/20 10:10:05;;;;;;;20.87;10.80;;;;;;;-2.73;nan;100975.25;4989108;28;20192;-82
2024/01/20 10:12:30;;;;;;;23.75;11.98;;;;;;;-2.62;nan;100970.25;4981299;28;20219;-82
2024/01/20 10:14:55;;;;;;;24.43;11.93;;;;;;;-2.53;nan;100972.03;4988500;28;20199;-82
2024/01/20 10:17:21;;;;;;;24.13;12.13;;;;;;;-2.50;nan;100970.38;4999623;28;20232;-82
2024/01/20 10:19:46;;;;;;;20.63;14.00;;;;;;;-2.49;nan;100973.78;4990195;28;20223;-82
2024/01/20 10:22:13;;;;;;;29.13;15.63;;;;;;;-2.47;nan;100970.41;4989192;28;20317;-82
2024/01/20 10:24:49;;;;;;;30.00;15.23;;;;;;;-2.42;nan;100977.31;4990387;28;20215;-82
2024/01/20 10:27:21;;;;;;;25.60;12.35;;;;;;;-2.41;nan;100979.03;4989030;28;20578;-82
2024/01/20 10:29:48;;;;;;;26.00;14.90;;;;;;;-2.42;nan;100972.16;4989816;28;20728;-82
2024/01/20 10:32:14;;;;;;;27.02;11.90;;;;;;;-2.39;nan;100975.63;4992152;28;20791;-82
2024/01/20 10:34:40;;;;;;;22.95;11.65;;;;;;;-2.33;nan;100982.56;4988032;28;20207;-82
2024/01/20 10:37:10;;;;;;;18.77;11.75;;;;;;;-2.35;nan;100986.81;4988664;28;20226;-82
2024/01/20 10:39:44;;;;;;;34.17;19.05;;;;;;;-2.32;nan;100989.41;4985454;28;20503;-82
2024/01/20 10:42:12;;;;;;;35.42;14.50;;;;;;;-2.33;nan;100990.28;4987401;28;20847;-82
2024/01/20 10:44:44;;;;;;;21.80;12.65;;;;;;;-2.29;nan;100992.91;4989049;28;20234;-82
2024/01/20 10:47:44;;;;;;;17.10;10.15;;;;;;;-2.19;nan;100996.41;4998389;28;20506;-82
2024/01/20 10:50:10;;;;;;;11.70;9.30;;;;;;;-2.12;nan;100993.06;4987218;28;20247;-82
2024/01/20 10:52:36;;;;;;;32.10;18.47;;;;;;;-2.10;nan;101004.25;4986760;28;20679;-82
2024/01/20 10:55:04;;;;;;;24.58;11.35;;;;;;;-2.10;nan;101004.25;4983990;28;20299;-83
2024/01/20 10:57:29;;;;;;;23.90;13.57;;;;;;;-2.07;nan;101001.72;4984042;28;20199;-83
2024/01/20 10:59:57;;;;;;;17.53;10.50;;;;;;;-2.03;nan;101007.75;4982050;28;20218;-83
2024/01/20 11:02:25;;;;;;;15.23;9.80;;;;;;;-2.08;nan;101010.28;4976670;28;20232;-83
2024/01/20 11:04:51;;;;;;;24.92;14.15;;;;;;;-2.06;nan;101018.03;4979294;28;20672;-83
2024/01/20 11:07:22;;;;;;;24.83;11.90;;;;;;;-2.02;nan;101017.22;4980408;28;20211;-83
2024/01/20 11:09:58;;;;;;;18.80;12.70;;;;;;;-1.96;nan;101013.84;4979917;28;20908;-83
2024/01/20 11:12:25;;;;;;;19.38;11.82;;;;;;;-1.99;nan;101001.78;4980469;28;20430;-83
2024/01/20 11:14:55;;;;;;;20.10;12.63;;;;;;;-2.06;nan;100998.28;4979096;28;20195;-83
2024/01/20 11:17:24;;;;;;;22.95;12.35;;;;;;;-2.03;nan;101000.03;4984018;28;20204;-83
2024/01/20 11:19:50;;;;;;;18.27;11.43;;;;;;;-1.97;nan;100987.22;4978805;28;20327;-83
2024/01/20 11:22:32;;;;;;;20.73;12.60;;;;;;;-1.92;nan;100985.53;4977045;28;20210;-83
2024/01/20 11:25:03;;;;;;;20.88;12.50;;;;;;;-1.91;nan;100982.13;4974991;28;20448;-83